sensor_id;sensor_type;location;lat;lon;timestamp;temperature;humidity
796;DHT22;381;48.770;9.188;2023-07-20T00:00:09;23.30;68.40
796;DHT22;381;48.770;9.188;2023-07-20T00:05:16;23.20;67.60
796;DHT22;381;48.770;9.188;2023-07-20T00:10:20;23.20;67.80
796;DHT22;381;48.770;9.188;2023-07-20T00:15:22;23.10;65.80
796;DHT22;381;48.770;9.188;2023-07-20T00:20:24;23.00;67.20
796;DHT22;381;48.770;9.188;2023-07-20T00:25:28;22.90;65.20
796;DHT22;381;48.770;9.188;2023-07-20T00:30:30;22.80;65.80
796;DHT22;381;48.770;9.188;2023-07-20T00:35:32;22.80;64.00
796;DHT22;381;48.770;9.188;2023-07-20T00:40:39;22.70;65.30
796;DHT22;381;48.770;9.188;2023-07-20T00:45:42;22.70;66.20
796;DHT22;381;48.770;9.188;2023-07-20T00:50:45;22.70;64.30
796;DHT22;381;48.770;9.188;2023-07-20T00:55:50;22.60;65.10
796;DHT22;381;48.770;9.188;2023-07-20T01:00:52;22.60;65.70
796;DHT22;381;48.770;9.188;2023-07-20T01:06:04;22.60;65.10
796;DHT22;381;48.770;9.188;2023-07-20T01:11:17;22.60;66.60
796;DHT22;381;48.770;9.188;2023-07-20T01:16:21;22.50;65.40
796;DHT22;381;48.770;9.188;2023-07-20T01:21:27;22.50;66.70
796;DHT22;381;48.770;9.188;2023-07-20T01:27:15;22.50;64.00
796;DHT22;381;48.770;9.188;2023-07-20T01:32:23;22.40;65.90
796;DHT22;381;48.770;9.188;2023-07-20T01:37:27;22.30;66.90
796;DHT22;381;48.770;9.188;2023-07-20T01:42:31;22.30;66.40
796;DHT22;381;48.770;9.188;2023-07-20T01:47:34;22.20;66.50
796;DHT22;381;48.770;9.188;2023-07-20T01:52:36;22.20;68.20
796;DHT22;381;48.770;9.188;2023-07-20T01:57:39;22.10;67.10
796;DHT22;381;48.770;9.188;2023-07-20T02:02:42;22.00;67.70
796;DHT22;381;48.770;9.188;2023-07-20T02:07:45;22.00;68.30
796;DHT22;381;48.770;9.188;2023-07-20T02:12:52;21.80;68.10
796;DHT22;381;48.770;9.188;2023-07-20T02:17:56;21.80;68.50
796;DHT22;381;48.770;9.188;2023-07-20T02:22:59;21.80;69.20
796;DHT22;381;48.770;9.188;2023-07-20T02:28:01;21.70;68.50
796;DHT22;381;48.770;9.188;2023-07-20T02:33:04;21.60;68.60
796;DHT22;381;48.770;9.188;2023-07-20T02:38:07;21.50;69.20
796;DHT22;381;48.770;9.188;2023-07-20T02:43:09;21.40;68.90
796;DHT22;381;48.770;9.188;2023-07-20T02:48:12;21.40;69.20
796;DHT22;381;48.770;9.188;2023-07-20T02:53:15;21.40;69.90
796;DHT22;381;48.770;9.188;2023-07-20T02:58:17;21.30;69.80
796;DHT22;381;48.770;9.188;2023-07-20T03:03:21;21.20;69.30
796;DHT22;381;48.770;9.188;2023-07-20T03:08:23;21.10;69.50
796;DHT22;381;48.770;9.188;2023-07-20T03:13:25;20.90;69.40
796;DHT22;381;48.770;9.188;2023-07-20T03:18:29;20.90;69.40
796;DHT22;381;48.770;9.188;2023-07-20T03:23:31;20.80;69.30
796;DHT22;381;48.770;9.188;2023-07-20T03:28:33;20.70;70.10
796;DHT22;381;48.770;9.188;2023-07-20T03:33:36;20.70;70.40
796;DHT22;381;48.770;9.188;2023-07-20T03:38:39;20.70;70.40
796;DHT22;381;48.770;9.188;2023-07-20T03:43:41;20.70;70.40
796;DHT22;381;48.770;9.188;2023-07-20T03:48:45;20.70;71.40
796;DHT22;381;48.770;9.188;2023-07-20T03:53:47;20.60;71.40
796;DHT22;381;48.770;9.188;2023-07-20T03:58:49;20.60;72.00
796;DHT22;381;48.770;9.188;2023-07-20T04:03:52;20.70;72.60
796;DHT22;381;48.770;9.188;2023-07-20T04:08:54;20.70;72.10
796;DHT22;381;48.770;9.188;2023-07-20T04:13:56;20.80;72.00
796;DHT22;381;48.770;9.188;2023-07-20T04:19:00;20.80;72.30
796;DHT22;381;48.770;9.188;2023-07-20T04:24:02;20.80;71.60
796;DHT22;381;48.770;9.188;2023-07-20T04:29:05;20.90;72.00
796;DHT22;381;48.770;9.188;2023-07-20T04:34:12;20.90;71.50
796;DHT22;381;48.770;9.188;2023-07-20T04:39:14;21.00;71.60
796;DHT22;381;48.770;9.188;2023-07-20T04:44:20;21.10;72.30
796;DHT22;381;48.770;9.188;2023-07-20T04:49:24;21.10;71.30
796;DHT22;381;48.770;9.188;2023-07-20T04:54:26;21.20;72.30
796;DHT22;381;48.770;9.188;2023-07-20T04:59:28;21.30;72.80
796;DHT22;381;48.770;9.188;2023-07-20T05:04:32;21.40;72.00
796;DHT22;381;48.770;9.188;2023-07-20T05:09:34;21.60;72.30
796;DHT22;381;48.770;9.188;2023-07-20T05:14:36;21.70;71.40
796;DHT22;381;48.770;9.188;2023-07-20T05:19:40;21.80;73.20
796;DHT22;381;48.770;9.188;2023-07-20T05:24:42;21.90;71.80
796;DHT22;381;48.770;9.188;2023-07-20T05:29:44;22.10;70.90
796;DHT22;381;48.770;9.188;2023-07-20T05:34:51;22.10;71.50
796;DHT22;381;48.770;9.188;2023-07-20T05:39:53;22.20;71.00
796;DHT22;381;48.770;9.188;2023-07-20T05:44:55;22.20;71.00
796;DHT22;381;48.770;9.188;2023-07-20T05:49:59;22.30;71.30
796;DHT22;381;48.770;9.188;2023-07-20T05:55:01;22.30;71.90
796;DHT22;381;48.770;9.188;2023-07-20T06:00:05;22.30;72.40
796;DHT22;381;48.770;9.188;2023-07-20T06:05:15;22.30;71.70
796;DHT22;381;48.770;9.188;2023-07-20T06:10:17;22.50;72.20
796;DHT22;381;48.770;9.188;2023-07-20T06:15:26;22.60;70.80
796;DHT22;381;48.770;9.188;2023-07-20T06:20:30;22.80;71.00
796;DHT22;381;48.770;9.188;2023-07-20T06:25:32;23.00;69.30
796;DHT22;381;48.770;9.188;2023-07-20T06:30:34;23.20;69.00
796;DHT22;381;48.770;9.188;2023-07-20T06:35:37;23.30;70.00
796;DHT22;381;48.770;9.188;2023-07-20T06:40:42;23.50;69.40
796;DHT22;381;48.770;9.188;2023-07-20T06:45:45;23.60;69.40
796;DHT22;381;48.770;9.188;2023-07-20T06:50:54;23.80;68.00
796;DHT22;381;48.770;9.188;2023-07-20T06:55:56;24.10;69.30
796;DHT22;381;48.770;9.188;2023-07-20T07:00:58;24.20;69.40
796;DHT22;381;48.770;9.188;2023-07-20T07:06:02;24.40;69.30
796;DHT22;381;48.770;9.188;2023-07-20T07:11:04;24.70;67.40
796;DHT22;381;48.770;9.188;2023-07-20T07:16:06;24.70;67.40
796;DHT22;381;48.770;9.188;2023-07-20T07:21:09;24.80;66.80
796;DHT22;381;48.770;9.188;2023-07-20T07:26:11;24.80;66.70
796;DHT22;381;48.770;9.188;2023-07-20T07:31:13;24.90;67.10
796;DHT22;381;48.770;9.188;2023-07-20T07:36:17;25.10;66.80
796;DHT22;381;48.770;9.188;2023-07-20T07:41:19;25.30;65.50
796;DHT22;381;48.770;9.188;2023-07-20T07:46:21;25.60;65.20
796;DHT22;381;48.770;9.188;2023-07-20T07:51:25;25.90;65.50
796;DHT22;381;48.770;9.188;2023-07-20T07:56:27;26.20;62.70
796;DHT22;381;48.770;9.188;2023-07-20T08:01:29;26.50;62.80
796;DHT22;381;48.770;9.188;2023-07-20T08:06:33;26.90;62.80
796;DHT22;381;48.770;9.188;2023-07-20T08:11:35;27.20;60.80
796;DHT22;381;48.770;9.188;2023-07-20T08:16:37;27.30;60.80
796;DHT22;381;48.770;9.188;2023-07-20T08:21:41;27.40;58.40
796;DHT22;381;48.770;9.188;2023-07-20T08:26:43;27.50;58.80
796;DHT22;381;48.770;9.188;2023-07-20T08:31:45;27.60;58.80
796;DHT22;381;48.770;9.188;2023-07-20T08:36:48;27.50;59.60
796;DHT22;381;48.770;9.188;2023-07-20T08:41:51;27.40;59.40
796;DHT22;381;48.770;9.188;2023-07-20T08:46:54;27.70;58.70
796;DHT22;381;48.770;9.188;2023-07-20T08:51:58;27.60;59.30
796;DHT22;381;48.770;9.188;2023-07-20T08:57:02;27.50;58.70
796;DHT22;381;48.770;9.188;2023-07-20T09:02:05;27.40;58.60
796;DHT22;381;48.770;9.188;2023-07-20T09:07:09;27.20;58.60
796;DHT22;381;48.770;9.188;2023-07-20T09:12:15;27.30;58.70
796;DHT22;381;48.770;9.188;2023-07-20T09:17:17;27.90;56.80
796;DHT22;381;48.770;9.188;2023-07-20T09:22:21;28.80;55.60
796;DHT22;381;48.770;9.188;2023-07-20T09:27:34;29.00;55.20
796;DHT22;381;48.770;9.188;2023-07-20T09:32:40;29.30;56.20
796;DHT22;381;48.770;9.188;2023-07-20T09:37:49;29.80;54.30
796;DHT22;381;48.770;9.188;2023-07-20T09:42:53;30.00;53.90
796;DHT22;381;48.770;9.188;2023-07-20T09:48:04;29.60;54.90
796;DHT22;381;48.770;9.188;2023-07-20T09:53:11;29.80;54.20
796;DHT22;381;48.770;9.188;2023-07-20T09:58:13;29.80;53.60
796;DHT22;381;48.770;9.188;2023-07-20T10:03:18;30.20;53.70
796;DHT22;381;48.770;9.188;2023-07-20T10:08:24;30.60;51.10
796;DHT22;381;48.770;9.188;2023-07-20T10:13:29;30.30;51.00
796;DHT22;381;48.770;9.188;2023-07-20T10:18:38;30.10;51.90
796;DHT22;381;48.770;9.188;2023-07-20T10:23:43;29.80;50.20
796;DHT22;381;48.770;9.188;2023-07-20T10:28:45;29.70;52.70
796;DHT22;381;48.770;9.188;2023-07-20T10:33:47;29.40;52.30
796;DHT22;381;48.770;9.188;2023-07-20T10:38:54;29.10;52.00
796;DHT22;381;48.770;9.188;2023-07-20T10:44:01;28.80;52.20
796;DHT22;381;48.770;9.188;2023-07-20T10:49:05;28.50;52.60
796;DHT22;381;48.770;9.188;2023-07-20T10:54:10;28.10;53.10
796;DHT22;381;48.770;9.188;2023-07-20T10:59:38;27.70;53.10
796;DHT22;381;48.770;9.188;2023-07-20T11:04:41;27.70;52.80
796;DHT22;381;48.770;9.188;2023-07-20T11:09:45;27.60;52.40
796;DHT22;381;48.770;9.188;2023-07-20T11:14:53;27.30;52.30
796;DHT22;381;48.770;9.188;2023-07-20T11:19:57;27.10;53.50
796;DHT22;381;48.770;9.188;2023-07-20T11:25:03;26.90;52.60
796;DHT22;381;48.770;9.188;2023-07-20T11:30:15;26.70;52.90
796;DHT22;381;48.770;9.188;2023-07-20T11:35:17;26.70;52.90
796;DHT22;381;48.770;9.188;2023-07-20T11:40:22;26.60;51.20
796;DHT22;381;48.770;9.188;2023-07-20T11:45:25;26.50;53.30
796;DHT22;381;48.770;9.188;2023-07-20T11:50:28;26.40;53.10
796;DHT22;381;48.770;9.188;2023-07-20T11:55:32;26.40;52.10
796;DHT22;381;48.770;9.188;2023-07-20T12:00:37;26.40;53.50
796;DHT22;381;48.770;9.188;2023-07-20T12:05:40;26.20;51.60
796;DHT22;381;48.770;9.188;2023-07-20T12:10:44;26.20;53.00
796;DHT22;381;48.770;9.188;2023-07-20T12:15:47;26.20;51.40
796;DHT22;381;48.770;9.188;2023-07-20T12:20:59;26.10;51.70
796;DHT22;381;48.770;9.188;2023-07-20T12:26:02;26.00;51.70
796;DHT22;381;48.770;9.188;2023-07-20T12:31:06;26.00;52.40
796;DHT22;381;48.770;9.188;2023-07-20T12:36:08;26.00;51.20
796;DHT22;381;48.770;9.188;2023-07-20T12:41:13;26.10;51.10
796;DHT22;381;48.770;9.188;2023-07-20T12:46:15;26.30;51.30
796;DHT22;381;48.770;9.188;2023-07-20T12:51:17;26.40;51.80
796;DHT22;381;48.770;9.188;2023-07-20T12:56:20;26.30;53.60
796;DHT22;381;48.770;9.188;2023-07-20T13:01:23;26.20;53.70
796;DHT22;381;48.770;9.188;2023-07-20T13:06:25;26.20;50.70
796;DHT22;381;48.770;9.188;2023-07-20T13:11:28;26.10;51.80
796;DHT22;381;48.770;9.188;2023-07-20T13:16:30;26.10;52.10
796;DHT22;381;48.770;9.188;2023-07-20T13:21:32;26.10;51.20
796;DHT22;381;48.770;9.188;2023-07-20T13:26:36;26.20;51.80
796;DHT22;381;48.770;9.188;2023-07-20T13:31:38;26.20;51.40
796;DHT22;381;48.770;9.188;2023-07-20T13:36:40;26.30;51.60
796;DHT22;381;48.770;9.188;2023-07-20T13:41:45;26.20;54.70
796;DHT22;381;48.770;9.188;2023-07-20T13:46:47;26.20;52.70
796;DHT22;381;48.770;9.188;2023-07-20T13:51:49;26.20;51.40
796;DHT22;381;48.770;9.188;2023-07-20T13:56:53;26.20;51.50
796;DHT22;381;48.770;9.188;2023-07-20T14:01:55;26.20;50.60
796;DHT22;381;48.770;9.188;2023-07-20T14:06:57;26.20;51.70
796;DHT22;381;48.770;9.188;2023-07-20T14:12:00;26.20;49.50
796;DHT22;381;48.770;9.188;2023-07-20T14:17:02;26.30;50.40
796;DHT22;381;48.770;9.188;2023-07-20T14:22:05;26.30;50.10
796;DHT22;381;48.770;9.188;2023-07-20T14:27:08;26.20;49.80
796;DHT22;381;48.770;9.188;2023-07-20T14:32:11;26.20;50.60
796;DHT22;381;48.770;9.188;2023-07-20T14:37:14;26.20;50.50
796;DHT22;381;48.770;9.188;2023-07-20T14:42:17;26.20;50.20
796;DHT22;381;48.770;9.188;2023-07-20T14:47:19;26.20;49.20
796;DHT22;381;48.770;9.188;2023-07-20T14:52:21;26.10;50.20
796;DHT22;381;48.770;9.188;2023-07-20T14:57:25;26.10;50.40
796;DHT22;381;48.770;9.188;2023-07-20T15:02:27;26.00;49.50
796;DHT22;381;48.770;9.188;2023-07-20T15:07:29;26.00;50.10
796;DHT22;381;48.770;9.188;2023-07-20T15:12:33;26.00;48.30
796;DHT22;381;48.770;9.188;2023-07-20T15:17:35;26.10;49.00
796;DHT22;381;48.770;9.188;2023-07-20T15:22:38;26.10;49.10
796;DHT22;381;48.770;9.188;2023-07-20T15:27:42;26.10;48.60
796;DHT22;381;48.770;9.188;2023-07-20T15:32:44;26.10;49.30
796;DHT22;381;48.770;9.188;2023-07-20T15:37:46;26.10;48.80
796;DHT22;381;48.770;9.188;2023-07-20T15:42:50;26.10;48.50
796;DHT22;381;48.770;9.188;2023-07-20T15:47:52;26.10;48.90
796;DHT22;381;48.770;9.188;2023-07-20T15:52:54;26.10;48.70
796;DHT22;381;48.770;9.188;2023-07-20T15:57:57;26.10;49.00
796;DHT22;381;48.770;9.188;2023-07-20T16:02:59;26.10;49.20
796;DHT22;381;48.770;9.188;2023-07-20T16:08:01;26.00;49.30
796;DHT22;381;48.770;9.188;2023-07-20T16:13:06;26.00;49.60
796;DHT22;381;48.770;9.188;2023-07-20T16:18:08;26.00;50.60
796;DHT22;381;48.770;9.188;2023-07-20T16:23:10;26.00;50.20
796;DHT22;381;48.770;9.188;2023-07-20T16:28:14;26.00;49.50
796;DHT22;381;48.770;9.188;2023-07-20T16:33:16;26.00;50.70
796;DHT22;381;48.770;9.188;2023-07-20T16:38:18;26.00;50.30
796;DHT22;381;48.770;9.188;2023-07-20T16:43:21;25.90;49.00
796;DHT22;381;48.770;9.188;2023-07-20T16:48:24;25.90;49.20
796;DHT22;381;48.770;9.188;2023-07-20T16:53:26;25.90;49.50
796;DHT22;381;48.770;9.188;2023-07-20T16:58:29;25.80;49.10
796;DHT22;381;48.770;9.188;2023-07-20T17:03:32;25.80;48.20
796;DHT22;381;48.770;9.188;2023-07-20T17:08:34;25.80;49.10
796;DHT22;381;48.770;9.188;2023-07-20T17:13:37;25.70;49.80
796;DHT22;381;48.770;9.188;2023-07-20T17:18:39;25.70;50.50
796;DHT22;381;48.770;9.188;2023-07-20T17:23:41;25.70;50.90
796;DHT22;381;48.770;9.188;2023-07-20T17:28:45;25.60;48.80
796;DHT22;381;48.770;9.188;2023-07-20T17:33:47;25.60;48.60
796;DHT22;381;48.770;9.188;2023-07-20T17:38:49;25.60;48.50
796;DHT22;381;48.770;9.188;2023-07-20T17:43:55;25.50;49.40
796;DHT22;381;48.770;9.188;2023-07-20T17:48:57;25.50;51.30
796;DHT22;381;48.770;9.188;2023-07-20T17:54:00;25.40;50.20
796;DHT22;381;48.770;9.188;2023-07-20T17:59:03;25.30;51.40
796;DHT22;381;48.770;9.188;2023-07-20T18:04:05;25.30;50.00
796;DHT22;381;48.770;9.188;2023-07-20T18:09:08;25.20;49.90
796;DHT22;381;48.770;9.188;2023-07-20T18:14:11;25.10;50.30
796;DHT22;381;48.770;9.188;2023-07-20T18:19:13;25.00;50.60
796;DHT22;381;48.770;9.188;2023-07-20T18:24:15;25.00;51.20
796;DHT22;381;48.770;9.188;2023-07-20T18:29:19;24.90;51.50
796;DHT22;381;48.770;9.188;2023-07-20T18:34:21;24.90;50.40
796;DHT22;381;48.770;9.188;2023-07-20T18:39:23;24.80;51.70
796;DHT22;381;48.770;9.188;2023-07-20T18:44:26;24.80;53.60
796;DHT22;381;48.770;9.188;2023-07-20T18:49:29;24.80;50.70
796;DHT22;381;48.770;9.188;2023-07-20T18:54:33;24.70;53.10
796;DHT22;381;48.770;9.188;2023-07-20T18:59:36;24.70;52.40
796;DHT22;381;48.770;9.188;2023-07-20T19:04:39;24.60;54.20
796;DHT22;381;48.770;9.188;2023-07-20T19:09:41;24.60;57.60
796;DHT22;381;48.770;9.188;2023-07-20T19:14:44;24.50;53.90
796;DHT22;381;48.770;9.188;2023-07-20T19:19:46;24.40;53.00
796;DHT22;381;48.770;9.188;2023-07-20T19:24:48;24.40;58.50
796;DHT22;381;48.770;9.188;2023-07-20T19:29:52;24.40;58.00
796;DHT22;381;48.770;9.188;2023-07-20T19:34:54;24.40;54.80
796;DHT22;381;48.770;9.188;2023-07-20T19:39:56;24.30;53.90
796;DHT22;381;48.770;9.188;2023-07-20T19:44:59;24.20;52.80
796;DHT22;381;48.770;9.188;2023-07-20T19:50:01;24.00;53.20
796;DHT22;381;48.770;9.188;2023-07-20T19:55:06;23.90;53.50
796;DHT22;381;48.770;9.188;2023-07-20T20:00:10;23.70;53.80
796;DHT22;381;48.770;9.188;2023-07-20T20:05:13;23.60;53.70
796;DHT22;381;48.770;9.188;2023-07-20T20:10:16;23.40;54.10
796;DHT22;381;48.770;9.188;2023-07-20T20:15:20;23.30;54.00
796;DHT22;381;48.770;9.188;2023-07-20T20:20:22;23.10;54.00
796;DHT22;381;48.770;9.188;2023-07-20T20:25:25;22.90;54.00
796;DHT22;381;48.770;9.188;2023-07-20T20:30:28;22.90;54.50
796;DHT22;381;48.770;9.188;2023-07-20T20:35:31;22.80;54.80
796;DHT22;381;48.770;9.188;2023-07-20T20:40:33;22.70;54.80
796;DHT22;381;48.770;9.188;2023-07-20T20:45:37;22.70;55.90
796;DHT22;381;48.770;9.188;2023-07-20T20:50:39;22.70;55.50
796;DHT22;381;48.770;9.188;2023-07-20T20:55:44;22.60;55.80
796;DHT22;381;48.770;9.188;2023-07-20T21:00:47;22.60;55.40
796;DHT22;381;48.770;9.188;2023-07-20T21:05:49;22.60;56.90
796;DHT22;381;48.770;9.188;2023-07-20T21:10:51;22.60;56.00
796;DHT22;381;48.770;9.188;2023-07-20T21:15:55;22.60;56.30
796;DHT22;381;48.770;9.188;2023-07-20T21:20:58;22.50;56.50
796;DHT22;381;48.770;9.188;2023-07-20T21:26:00;22.50;56.60
796;DHT22;381;48.770;9.188;2023-07-20T21:31:07;22.50;57.20
796;DHT22;381;48.770;9.188;2023-07-20T21:36:10;22.40;56.20
796;DHT22;381;48.770;9.188;2023-07-20T21:41:12;22.30;57.20
796;DHT22;381;48.770;9.188;2023-07-20T21:46:16;22.30;57.20
796;DHT22;381;48.770;9.188;2023-07-20T21:51:19;22.20;57.80
796;DHT22;381;48.770;9.188;2023-07-20T21:56:21;22.20;57.10
796;DHT22;381;48.770;9.188;2023-07-20T22:01:25;22.10;57.00
796;DHT22;381;48.770;9.188;2023-07-20T22:06:28;22.00;57.10
796;DHT22;381;48.770;9.188;2023-07-20T22:11:31;21.90;57.40
796;DHT22;381;48.770;9.188;2023-07-20T22:16:35;21.80;57.60
796;DHT22;381;48.770;9.188;2023-07-20T22:21:38;21.70;57.40
796;DHT22;381;48.770;9.188;2023-07-20T22:26:41;21.60;57.70
796;DHT22;381;48.770;9.188;2023-07-20T22:31:45;21.60;58.30
796;DHT22;381;48.770;9.188;2023-07-20T22:36:47;21.60;58.20
796;DHT22;381;48.770;9.188;2023-07-20T22:41:49;21.60;58.10
796;DHT22;381;48.770;9.188;2023-07-20T22:46:53;21.50;59.00
796;DHT22;381;48.770;9.188;2023-07-20T22:51:55;21.50;58.80
796;DHT22;381;48.770;9.188;2023-07-20T22:56:57;21.50;58.70
796;DHT22;381;48.770;9.188;2023-07-20T23:02:00;21.40;58.70
796;DHT22;381;48.770;9.188;2023-07-20T23:07:03;21.40;58.70
796;DHT22;381;48.770;9.188;2023-07-20T23:12:05;21.40;59.40
796;DHT22;381;48.770;9.188;2023-07-20T23:17:09;21.40;59.60
796;DHT22;381;48.770;9.188;2023-07-20T23:22:12;21.40;59.30
796;DHT22;381;48.770;9.188;2023-07-20T23:27:16;21.30;59.70
796;DHT22;381;48.770;9.188;2023-07-20T23:32:20;21.30;59.50
796;DHT22;381;48.770;9.188;2023-07-20T23:37:22;21.30;60.00
796;DHT22;381;48.770;9.188;2023-07-20T23:42:24;21.40;60.30
796;DHT22;381;48.770;9.188;2023-07-20T23:47:27;21.30;59.60
796;DHT22;381;48.770;9.188;2023-07-20T23:52:29;21.30;61.10
796;DHT22;381;48.770;9.188;2023-07-20T23:57:35;21.30;59.50
